Time;durP1;ratioP1;P1;durP2;ratioP2;P2;SDS_P1;SDS_P2;PMS_P1;PMS_P2;Temp;Humidity;BMP_temperature;BMP_pressure;BME280_temperature;BME280_humidity;BME280_pressure;Samples;Min_cycle;Max_cycle;Signal;HPM_P1;HPM_P2
2022/12/29 00:01:37;;;;;;;7.30;2.90;;;10.50;99.90;;;;;;5036222;28;20119;-91
2022/12/29 00:04:04;;;;;;;5.75;2.75;;;10.60;99.90;;;;;;5036892;28;20033;-90
2022/12/29 00:06:30;;;;;;;6.97;2.70;;;10.60;99.90;;;;;;5036236;28;20067;-91
2022/12/29 00:08:56;;;;;;;6.72;2.92;;;10.60;99.90;;;;;;5039230;28;20040;-91
2022/12/29 00:11:24;;;;;;;5.13;2.53;;;10.60;99.90;;;;;;5039184;28;20047;-91
2022/12/29 00:16:36;;;;;;;5.95;2.67;;;10.70;99.90;;;;;;5056449;28;20087;-91
2022/12/29 00:19:02;;;;;;;7.30;2.80;;;10.80;99.90;;;;;;5038890;28;20490;-91
2022/12/29 00:35:52;;;;;;;8.02;3.05;;;10.80;99.90;;;;;;5059154;28;20044;-90
2022/12/29 00:46:33;;;;;;;5.72;2.63;;;10.80;99.90;;;;;;5053948;28;20036;-90
2022/12/29 00:51:44;;;;;;;6.57;2.28;;;10.80;99.90;;;;;;5055200;28;20036;-90
2022/12/29 00:54:09;;;;;;;6.53;2.47;;;10.90;99.90;;;;;;5072445;28;20047;-91
2022/12/29 00:56:35;;;;;;;5.35;2.45;;;10.90;99.90;;;;;;5055649;28;20547;-91
2022/12/29 00:59:07;;;;;;;6.57;2.85;;;10.90;99.90;;;;;;5039539;28;20135;-91
2022/12/29 01:01:33;;;;;;;7.95;2.72;;;10.90;99.90;;;;;;5052895;28;20098;-91
2022/12/29 01:03:58;;;;;;;7.18;2.55;;;10.90;99.90;;;;;;5038652;28;20119;-92
2022/12/29 01:06:24;;;;;;;5.47;2.30;;;11.00;99.90;;;;;;5057212;28;20115;-90
2022/12/29 01:10:09;;;;;;;5.05;2.38;;;11.00;99.90;;;;;;5038702;28;20370;-91
2022/12/29 01:11:37;;;;;;;5.53;2.28;;;11.00;99.90;;;;;;5054500;28;20051;-91
2022/12/29 01:14:03;;;;;;;6.03;2.10;;;11.00;99.90;;;;;;5039303;28;20048;-91
2022/12/29 01:16:29;;;;;;;5.97;2.55;;;11.00;99.90;;;;;;5053922;28;20048;-91
2022/12/29 01:18:54;;;;;;;5.78;2.33;;;11.10;99.90;;;;;;5057061;28;20417;-91
2022/12/29 01:21:20;;;;;;;4.22;2.00;;;11.10;99.90;;;;;;5055048;28;20029;-91
2022/12/29 01:23:46;;;;;;;5.85;2.03;;;11.10;99.90;;;;;;5055470;28;20032;-90
2022/12/29 01:26:13;;;;;;;6.38;2.00;;;11.10;99.90;;;;;;5071435;28;20039;-90
2022/12/29 01:28:40;;;;;;;6.15;2.40;;;11.10;99.90;;;;;;5075736;28;20416;-90
2022/12/29 01:31:13;;;;;;;4.18;1.85;;;11.20;99.90;;;;;;5074218;28;20158;-91
2022/12/29 01:33:39;;;;;;;5.28;2.53;;;11.20;99.90;;;;;;5058385;28;20044;-90
2022/12/29 01:36:08;;;;;;;5.72;2.10;;;11.20;99.90;;;;;;5057771;28;20055;-90
2022/12/29 01:38:35;;;;;;;4.68;2.00;;;11.20;99.90;;;;;;5057937;28;20040;-90
2022/12/29 01:41:02;;;;;;;4.95;2.00;;;11.20;99.90;;;;;;5058337;28;20118;-91
2022/12/29 01:43:46;;;;;;;5.47;2.00;;;11.20;99.90;;;;;;5057562;28;20036;-90
2022/12/29 01:46:26;;;;;;;4.55;2.03;;;11.30;99.90;;;;;;5058047;28;20043;-91
2022/12/29 01:48:58;;;;;;;7.55;2.90;;;11.30;99.90;;;;;;5056880;28;20090;-91
2022/12/29 01:51:26;;;;;;;5.38;2.17;;;11.30;99.90;;;;;;5058067;28;20127;-91
2022/12/29 01:53:54;;;;;;;6.35;2.25;;;11.30;99.90;;;;;;5056545;28;20040;-91
2022/12/29 01:56:21;;;;;;;4.20;1.85;;;11.30;99.90;;;;;;5058014;28;20100;-91
2022/12/29 01:58:50;;;;;;;6.38;2.20;;;11.30;99.90;;;;;;5057963;28;20044;-91
2022/12/29 02:01:18;;;;;;;4.93;1.58;;;11.40;99.90;;;;;;5057112;28;20072;-91
2022/12/29 02:03:44;;;;;;;4.32;1.80;;;11.40;99.90;;;;;;5062746;28;20032;-90
2022/12/29 02:06:23;;;;;;;5.60;1.85;;;11.40;99.90;;;;;;5080836;28;20040;-92
2022/12/29 02:08:52;;;;;;;4.25;1.73;;;11.30;99.90;;;;;;5092279;28;20044;-91
2022/12/29 02:11:18;;;;;;;7.60;3.17;;;11.30;99.90;;;;;;5057567;28;20036;-91
2022/12/29 02:13:44;;;;;;;6.10;2.05;;;11.30;99.90;;;;;;5057093;28;20127;-91
2022/12/29 02:16:41;;;;;;;5.32;1.90;;;11.30;99.90;;;;;;5057469;28;20123;-91
2022/12/29 02:19:46;;;;;;;5.45;1.95;;;11.40;99.90;;;;;;5047440;28;20059;-91
2022/12/29 02:22:18;;;;;;;6.47;1.73;;;11.30;99.90;;;;;;5006691;28;20044;-90
2022/12/29 02:25:38;;;;;;;5.28;1.83;;;11.30;99.90;;;;;;5056202;28;20162;-91
2022/12/29 02:28:31;;;;;;;3.17;1.40;;;11.30;99.90;;;;;;4957775;28;20096;-90
2022/12/29 02:31:17;;;;;;;4.25;1.75;;;11.40;99.90;;;;;;5070232;28;20456;-91
2022/12/29 02:34:03;;;;;;;4.30;1.65;;;11.30;99.90;;;;;;5056955;28;20048;-90
2022/12/29 02:36:49;;;;;;;5.90;1.60;;;11.30;99.90;;;;;;5056492;28;21195;-90
2022/12/29 02:39:36;;;;;;;4.75;1.52;;;11.30;99.90;;;;;;5091768;28;20119;-91
2022/12/29 02:42:11;;;;;;;5.03;1.73;;;11.20;99.90;;;;;;5057144;28;20472;-90
2022/12/29 02:45:04;;;;;;;2.60;1.20;;;11.20;99.90;;;;;;5057137;28;20378;-90
2022/12/29 02:47:36;;;;;;;5.53;1.70;;;11.10;99.90;;;;;;5057050;28;20402;-90
2022/12/29 02:50:15;;;;;;;4.23;1.30;;;11.00;99.90;;;;;;5073286;28;20051;-90
2022/12/29 02:52:47;;;;;;;5.53;1.80;;;10.90;99.90;;;;;;5056609;28;20274;-90
2022/12/29 02:55:13;;;;;;;;;;;10.90;99.90;;;;;;5057067;28;20043;-90
2022/12/29 02:57:39;;;;;;;3.72;1.30;;;10.90;99.90;;;;;;5056721;28;19916;-90
2022/12/29 03:00:09;;;;;;;5.13;1.83;;;10.90;99.90;;;;;;5056603;28;20516;-91
2022/12/29 03:03:11;;;;;;;4.13;1.52;;;10.80;99.90;;;;;;5056005;28;20109;-90
2022/12/29 03:05:59;;;;;;;3.97;1.30;;;10.80;99.90;;;;;;5056894;28;20057;-91
2022/12/29 03:08:44;;;;;;;4.53;1.70;;;10.80;99.90;;;;;;5050623;28;20119;-91
2022/12/29 03:17:28;;;;;;;4.13;1.70;;;10.80;99.90;;;;;;5033261;28;20127;-91
2022/12/29 03:20:07;;;;;;;4.57;1.60;;;10.80;99.90;;;;;;5043053;28;20212;-91
2022/12/29 03:22:39;;;;;;;5.75;1.52;;;10.80;99.90;;;;;;5056051;28;20027;-90
2022/12/29 03:25:10;;;;;;;3.22;1.30;;;10.70;99.90;;;;;;5056871;28;20111;-92
2022/12/29 03:27:40;;;;;;;3.55;1.40;;;10.80;99.90;;;;;;5073096;28;20036;-92
2022/12/29 03:30:07;;;;;;;4.10;1.55;;;10.80;99.90;;;;;;5056667;28;20397;-91
2022/12/29 03:32:54;;;;;;;3.80;1.33;;;10.80;99.90;;;;;;5055467;28;20122;-91
2022/12/29 03:35:22;;;;;;;3.45;1.17;;;10.80;99.90;;;;;;5056845;28;20130;-91
2022/12/29 03:38:13;;;;;;;3.38;1.27;;;10.90;99.90;;;;;;5055629;28;20051;-91
2022/12/29 03:40:43;;;;;;;3.05;1.15;;;10.90;99.90;;;;;;5093177;28;20382;-92
2022/12/29 03:43:09;;;;;;;4.65;1.38;;;10.90;99.90;;;;;;5076843;28;20083;-91
2022/12/29 03:45:34;;;;;;;4.63;1.35;;;10.90;99.90;;;;;;5076652;28;20074;-91
2022/12/29 03:48:00;;;;;;;4.63;1.30;;;11.00;99.90;;;;;;5060787;28;20514;-92
2022/12/29 03:50:26;;;;;;;3.75;1.13;;;10.90;99.90;;;;;;5055826;28;20041;-92
2022/12/29 03:52:51;;;;;;;3.25;1.08;;;11.00;99.90;;;;;;5056707;28;20039;-92
2022/12/29 03:55:17;;;;;;;2.67;0.95;;;11.00;99.90;;;;;;5050507;28;20067;-91
2022/12/29 03:57:43;;;;;;;4.10;1.17;;;11.00;99.90;;;;;;5077370;28;20428;-92
2022/12/29 04:00:09;;;;;;;3.60;1.08;;;11.00;99.90;;;;;;5058942;28;20032;-92
2022/12/29 04:02:35;;;;;;;3.92;1.08;;;11.10;99.90;;;;;;5059494;28;20039;-92
2022/12/29 04:05:00;;;;;;;3.65;0.90;;;11.10;99.90;;;;;;5060067;28;20040;-91
2022/12/29 04:07:26;;;;;;;6.97;1.40;;;11.10;99.90;;;;;;5047038;28;20043;-92
2022/12/29 04:09:51;;;;;;;4.40;0.93;;;11.10;99.90;;;;;;5057215;28;20048;-91
2022/12/29 04:12:17;;;;;;;7.18;1.13;;;11.10;99.90;;;;;;5045097;28;20079;-91
2022/12/29 04:14:43;;;;;;;5.72;1.02;;;11.10;99.90;;;;;;5059557;28;20044;-91
2022/12/29 04:17:08;;;;;;;4.88;1.05;;;11.10;99.90;;;;;;5060154;28;20082;-91
2022/12/29 04:19:34;;;;;;;6.65;1.33;;;11.10;99.90;;;;;;5075837;28;20032;-91
2022/12/29 04:22:00;;;;;;;2.97;1.10;;;11.10;99.90;;;;;;5059413;28;20072;-91
2022/12/29 04:24:25;;;;;;;3.65;0.77;;;11.10;99.90;;;;;;5094295;28;20036;-91
2022/12/29 04:26:51;;;;;;;3.40;0.82;;;11.10;99.90;;;;;;5076458;28;20028;-92
2022/12/29 04:29:17;;;;;;;1.92;0.85;;;11.10;99.90;;;;;;5075808;28;20547;-91
2022/12/29 04:31:42;;;;;;;4.15;1.17;;;11.20;99.90;;;;;;5074201;28;20078;-91
2022/12/29 04:34:08;;;;;;;3.47;0.95;;;11.20;99.90;;;;;;5059690;28;20040;-91
2022/12/29 04:36:33;;;;;;;4.00;0.85;;;11.20;99.90;;;;;;5075601;28;20409;-90
2022/12/29 04:38:59;;;;;;;4.78;1.00;;;11.20;99.90;;;;;;5059470;28;20047;-92
2022/12/29 04:41:25;;;;;;;4.10;1.13;;;11.10;99.90;;;;;;5059711;28;20508;-92
2022/12/29 04:43:51;;;;;;;4.68;1.17;;;11.10;99.90;;;;;;5058010;28;20104;-92
2022/12/29 04:46:16;;;;;;;2.25;0.75;;;11.10;99.90;;;;;;5059575;28;20043;-92
2022/12/29 04:48:42;;;;;;;2.38;1.02;;;11.10;99.90;;;;;;5058903;28;20044;-91
2022/12/29 04:51:08;;;;;;;3.13;0.85;;;11.10;99.90;;;;;;5058993;28;20071;-92
2022/12/29 04:53:34;;;;;;;2.15;0.80;;;11.10;99.90;;;;;;5059190;28;20521;-92
2022/12/29 04:55:59;;;;;;;2.75;1.00;;;11.10;99.90;;;;;;5059051;28;20039;-91
2022/12/29 04:58:25;;;;;;;3.25;0.90;;;11.10;99.90;;;;;;5058714;28;20409;-91
2022/12/29 05:00:52;;;;;;;2.33;0.73;;;11.00;99.90;;;;;;5059681;28;20407;-91
2022/12/29 05:03:17;;;;;;;3.15;0.98;;;11.00;99.90;;;;;;5074882;28;20115;-91
2022/12/29 05:05:43;;;;;;;2.33;1.15;;;11.00;99.90;;;;;;5059369;28;20038;-91
2022/12/29 05:08:09;;;;;;;3.20;0.90;;;11.00;99.90;;;;;;5075343;28;20566;-91
2022/12/29 05:10:34;;;;;;;2.60;0.80;;;11.00;99.90;;;;;;5058829;28;20405;-91
2022/12/29 05:13:00;;;;;;;2.70;1.02;;;11.00;99.90;;;;;;5058942;28;20047;-91
2022/12/29 05:15:26;;;;;;;4.82;1.00;;;11.10;99.90;;;;;;5058171;28;20473;-91
2022/12/29 05:17:52;;;;;;;3.97;1.10;;;11.10;99.90;;;;;;5058829;28;20114;-91
2022/12/29 05:20:18;;;;;;;4.15;1.10;;;11.10;99.90;;;;;;5058872;28;20058;-91
2022/12/29 05:22:44;;;;;;;4.85;0.98;;;11.10;99.90;;;;;;5057667;28;20024;-91
2022/12/29 05:25:09;;;;;;;2.20;0.90;;;11.10;99.90;;;;;;5058741;28;20509;-91
2022/12/29 05:27:35;;;;;;;2.90;0.93;;;11.00;99.90;;;;;;5093489;28;20405;-89
2022/12/29 05:30:01;;;;;;;8.30;1.65;;;11.00;99.90;;;;;;5057611;28;20044;-91
2022/12/29 05:32:26;;;;;;;6.13;1.30;;;11.00;99.90;;;;;;5058252;28;20032;-92
2022/12/29 05:34:52;;;;;;;3.63;0.95;;;11.00;99.90;;;;;;5074904;28;20189;-91
2022/12/29 05:37:18;;;;;;;3.55;0.98;;;11.00;99.90;;;;;;5074620;28;20488;-91
2022/12/29 05:39:43;;;;;;;3.60;1.15;;;11.00;99.90;;;;;;5075133;28;20037;-91
2022/12/29 05:42:09;;;;;;;4.45;1.08;;;11.00;99.90;;;;;;5092540;28;20456;-91
2022/12/29 05:44:35;;;;;;;4.13;0.95;;;10.90;99.90;;;;;;5058416;28;20036;-91
2022/12/29 05:47:00;;;;;;;4.47;1.88;;;10.90;99.90;;;;;;5092438;28;20452;-91
2022/12/29 05:49:26;;;;;;;5.45;1.20;;;10.90;99.90;;;;;;5074845;28;20086;-92
2022/12/29 05:51:52;;;;;;;3.03;1.02;;;10.90;99.90;;;;;;5058296;28;20051;-91
2022/12/29 05:54:17;;;;;;;4.68;1.00;;;10.90;99.90;;;;;;5057242;28;20044;-93
2022/12/29 05:56:43;;;;;;;2.65;0.90;;;10.90;99.90;;;;;;5058115;28;20039;-91
2022/12/29 05:59:08;;;;;;;2.78;0.93;;;10.90;99.90;;;;;;5074252;28;20075;-91
2022/12/29 06:01:34;;;;;;;5.18;1.25;;;10.90;99.90;;;;;;5057897;28;20032;-91
2022/12/29 06:04:00;;;;;;;2.92;0.98;;;10.90;99.90;;;;;;5038285;28;20562;-91
2022/12/29 06:06:25;;;;;;;2.40;0.80;;;10.90;99.90;;;;;;5058559;28;20117;-91
2022/12/29 06:08:51;;;;;;;5.50;0.80;;;10.90;99.90;;;;;;5073713;28;20130;-91
2022/12/29 06:11:17;;;;;;;2.30;0.65;;;10.90;99.90;;;;;;5057416;28;20048;-92
2022/12/29 06:13:42;;;;;;;2.95;1.05;;;10.90;99.90;;;;;;5055932;28;20063;-92
2022/12/29 06:16:08;;;;;;;5.82;0.90;;;10.80;99.90;;;;;;5074224;28;20093;-91
2022/12/29 06:18:34;;;;;;;3.67;0.80;;;10.80;99.90;;;;;;5056894;28;20106;-91
2022/12/29 06:21:04;;;;;;;5.13;1.02;;;10.80;99.90;;;;;;5073221;28;20044;-91
2022/12/29 06:23:30;;;;;;;3.88;0.90;;;10.80;99.90;;;;;;5057045;28;20122;-91
2022/12/29 06:25:56;;;;;;;3.38;0.82;;;10.80;99.90;;;;;;5082226;28;20135;-91
2022/12/29 06:28:21;;;;;;;3.38;1.10;;;10.80;99.90;;;;;;5056712;28;20101;-91
2022/12/29 06:30:48;;;;;;;2.92;0.68;;;10.70;99.90;;;;;;5053622;28;20048;-91
2022/12/29 06:33:14;;;;;;;5.43;1.13;;;10.80;99.90;;;;;;5036575;28;20044;-92
2022/12/29 06:35:41;;;;;;;4.25;1.00;;;10.70;99.90;;;;;;5036758;28;20557;-93
2022/12/29 06:38:06;;;;;;;5.32;1.10;;;10.70;99.90;;;;;;5073100;28;20044;-91
2022/12/29 06:40:32;;;;;;;3.67;0.75;;;10.70;99.90;;;;;;5056698;28;20405;-91
2022/12/29 06:42:58;;;;;;;6.93;1.25;;;10.70;99.90;;;;;;5055745;28;20110;-92
2022/12/29 06:45:23;;;;;;;2.45;0.65;;;10.70;99.90;;;;;;5073344;28;20537;-93
2022/12/29 06:47:49;;;;;;;7.18;1.00;;;10.60;99.90;;;;;;5072980;28;20397;-91
2022/12/29 06:50:14;;;;;;;3.08;0.70;;;10.60;99.90;;;;;;5090875;28;20475;-92
2022/12/29 06:52:40;;;;;;;4.78;1.40;;;10.70;99.90;;;;;;5056464;28;20457;-92
2022/12/29 06:55:06;;;;;;;6.38;1.83;;;10.60;99.90;;;;;;5046963;28;20067;-92
2022/12/29 06:57:32;;;;;;;7.63;1.42;;;10.60;99.90;;;;;;5056842;28;20472;-91
2022/12/29 06:59:58;;;;;;;9.18;1.48;;;10.60;99.90;;;;;;5072112;28;20530;-92
2022/12/29 07:02:25;;;;;;;14.30;1.52;;;10.50;99.90;;;;;;5056317;28;20501;-91
2022/12/29 07:04:52;;;;;;;7.38;1.35;;;10.40;99.90;;;;;;5073193;28;20455;-91
2022/12/29 07:07:18;;;;;;;5.00;1.00;;;10.40;99.90;;;;;;5055544;28;20115;-91
2022/12/29 07:09:44;;;;;;;6.68;1.27;;;10.40;99.90;;;;;;5056540;28;20109;-91
2022/12/29 07:12:10;;;;;;;6.70;1.23;;;10.40;99.90;;;;;;5051981;28;20556;-91
2022/12/29 07:14:36;;;;;;;7.50;1.23;;;10.40;99.90;;;;;;5036059;28;20071;-91
2022/12/29 07:17:05;;;;;;;11.05;1.45;;;10.40;99.90;;;;;;5036235;28;20048;-91
2022/12/29 07:19:32;;;;;;;5.80;1.13;;;10.40;99.90;;;;;;5049802;28;20032;-92
2022/12/29 07:21:57;;;;;;;9.02;1.50;;;10.30;99.90;;;;;;5056123;28;20036;-91
2022/12/29 07:24:25;;;;;;;11.95;1.15;;;10.30;99.90;;;;;;5055812;28;20044;-93
2022/12/29 07:26:51;;;;;;;9.25;1.70;;;10.20;99.90;;;;;;5046817;28;20405;-92
2022/12/29 07:29:16;;;;;;;7.55;1.30;;;10.30;99.90;;;;;;5056225;28;20048;-93
2022/12/29 07:31:42;;;;;;;7.20;1.05;;;10.30;99.90;;;;;;5052207;28;20032;-91
2022/12/29 07:34:08;;;;;;;9.40;1.70;;;10.30;99.90;;;;;;5052659;28;20101;-91
2022/12/29 07:36:34;;;;;;;4.43;1.00;;;10.30;99.90;;;;;;5041927;28;20050;-91
2022/12/29 07:38:59;;;;;;;6.90;1.67;;;10.30;99.90;;;;;;5055159;28;20754;-92
2022/12/29 07:41:25;;;;;;;6.13;1.30;;;10.30;99.90;;;;;;5055646;28;20040;-91
2022/12/29 07:43:51;;;;;;;7.65;1.45;;;10.40;99.90;;;;;;5055519;28;20036;-92
2022/12/29 07:46:16;;;;;;;6.22;1.30;;;10.40;99.90;;;;;;5056495;28;20039;-91
2022/12/29 07:48:42;;;;;;;5.85;0.93;;;10.40;99.90;;;;;;5054931;28;20032;-91
2022/12/29 07:51:07;;;;;;;8.10;1.13;;;10.40;99.90;;;;;;5055428;28;20039;-92
2022/12/29 07:53:33;;;;;;;6.32;1.20;;;10.40;99.90;;;;;;5071426;28;20028;-90
2022/12/29 07:55:58;;;;;;;6.25;1.40;;;10.40;99.90;;;;;;5055312;28;20455;-91
2022/12/29 07:58:24;;;;;;;5.28;1.30;;;10.40;99.90;;;;;;5056359;28;20090;-91
2022/12/29 08:00:54;;;;;;;9.00;1.17;;;10.40;99.90;;;;;;5055233;28;20044;-91
2022/12/29 08:03:20;;;;;;;6.22;1.20;;;10.30;99.90;;;;;;5055580;28;20557;-91
2022/12/29 08:05:45;;;;;;;4.40;1.02;;;10.30;99.90;;;;;;5055928;28;20142;-92
2022/12/29 08:08:11;;;;;;;3.40;0.88;;;10.30;99.90;;;;;;5055198;28;20119;-92
2022/12/29 08:10:36;;;;;;;6.35;1.35;;;10.30;99.90;;;;;;5055781;28;20378;-91
2022/12/29 08:13:02;;;;;;;10.13;2.38;;;10.30;99.90;;;;;;5054823;28;20058;-91
2022/12/29 08:15:28;;;;;;;4.72;1.65;;;10.20;99.90;;;;;;5055534;28;20047;-92
2022/12/29 08:17:54;;;;;;;7.47;1.50;;;10.20;99.90;;;;;;5072771;28;20042;-92
2022/12/29 08:20:19;;;;;;;7.65;1.65;;;10.20;99.90;;;;;;5054752;28;20037;-91
2022/12/29 08:22:45;;;;;;;8.20;1.52;;;10.20;99.90;;;;;;5055025;28;20036;-91
2022/12/29 08:25:11;;;;;;;8.63;1.67;;;10.20;99.90;;;;;;5047184;28;20418;-92
2022/12/29 08:27:36;;;;;;;5.68;1.30;;;10.20;99.90;;;;;;5040739;28;20033;-91
2022/12/29 08:30:02;;;;;;;9.07;1.90;;;10.20;99.90;;;;;;5039367;28;20124;-91
2022/12/29 08:32:28;;;;;;;7.28;2.15;;;10.20;99.90;;;;;;5059374;28;20059;-91
2022/12/29 08:34:54;;;;;;;7.78;1.50;;;10.20;99.90;;;;;;5075012;28;20441;-92
2022/12/29 08:37:19;;;;;;;8.43;1.60;;;10.20;99.90;;;;;;5059077;28;20039;-91
2022/12/29 08:39:45;;;;;;;7.18;1.65;;;10.20;99.90;;;;;;5059146;28;20119;-91
2022/12/29 08:42:11;;;;;;;5.70;1.00;;;10.20;99.90;;;;;;5074778;28;20036;-91
2022/12/29 08:44:36;;;;;;;6.50;1.40;;;10.20;99.90;;;;;;5039374;28;20469;-91
2022/12/29 08:47:02;;;;;;;4.78;1.00;;;10.20;99.90;;;;;;5046938;28;20040;-92
2022/12/29 08:49:28;;;;;;;8.85;1.60;;;10.20;99.90;;;;;;5038817;28;20082;-91
2022/12/29 08:51:53;;;;;;;8.05;1.50;;;10.20;99.90;;;;;;5047339;28;20036;-93
2022/12/29 08:54:19;;;;;;;4.35;0.77;;;10.20;99.90;;;;;;5059303;28;20136;-91
2022/12/29 08:56:44;;;;;;;6.75;1.27;;;10.20;99.90;;;;;;5058403;28;20481;-92
2022/12/29 08:59:10;;;;;;;6.97;1.33;;;10.20;99.90;;;;;;5058444;28;20040;-91
2022/12/29 09:01:38;;;;;;;5.35;1.00;;;10.20;99.90;;;;;;5058819;28;20095;-91
2022/12/29 09:04:04;;;;;;;8.85;1.15;;;10.20;99.90;;;;;;5074105;28;20036;-91
2022/12/29 09:06:29;;;;;;;2.80;0.75;;;10.20;99.90;;;;;;5093294;28;20043;-91
2022/12/29 09:08:55;;;;;;;4.97;1.25;;;10.20;99.90;;;;;;5058787;28;20607;-91
2022/12/29 09:11:23;;;;;;;6.40;1.10;;;10.20;99.90;;;;;;5057623;28;20055;-92
2022/12/29 09:13:49;;;;;;;5.80;1.15;;;10.20;99.90;;;;;;5057863;28;20051;-92
2022/12/29 09:16:16;;;;;;;6.05;0.90;;;10.20;99.90;;;;;;5058331;28;20032;-91
2022/12/29 09:18:42;;;;;;;8.43;0.93;;;10.20;99.90;;;;;;5056492;28;20128;-91
2022/12/29 09:21:09;;;;;;;5.13;1.00;;;10.20;99.90;;;;;;5092258;28;20101;-91
2022/12/29 09:23:35;;;;;;;8.35;1.20;;;10.20;99.90;;;;;;5057822;28;20050;-92
2022/12/29 09:26:01;;;;;;;7.47;0.98;;;10.20;99.90;;;;;;5057974;28;20127;-91
2022/12/29 09:28:28;;;;;;;10.00;1.48;;;10.20;99.90;;;;;;5073300;28;20428;-90
2022/12/29 09:30:54;;;;;;;7.15;1.48;;;10.10;99.90;;;;;;5073198;28;20548;-91
2022/12/29 09:33:20;;;;;;;4.88;1.38;;;10.00;99.90;;;;;;5037865;28;20032;-90
2022/12/29 09:35:52;;;;;;;6.15;1.27;;;10.00;99.90;;;;;;5068321;28;20058;-91
2022/12/29 09:38:18;;;;;;;5.65;1.10;;;9.90;99.90;;;;;;5057459;28;20044;-91
2022/12/29 09:40:49;;;;;;;6.85;1.95;;;9.90;99.90;;;;;;5057277;28;20039;-92
2022/12/29 09:43:38;;;;;;;6.15;1.48;;;9.90;99.90;;;;;;5058455;28;20044;-92
2022/12/29 09:46:29;;;;;;;9.77;1.67;;;9.90;99.90;;;;;;5053989;28;20040;-91
2022/12/29 09:49:28;;;;;;;7.32;1.38;;;9.80;99.90;;;;;;5060151;28;20083;-92
2022/12/29 09:51:59;;;;;;;6.72;1.80;;;9.80;99.90;;;;;;5071845;28;20043;-91
2022/12/29 09:55:04;;;;;;;11.68;1.67;;;9.90;99.90;;;;;;5066923;28;20082;-92
2022/12/29 09:57:35;;;;;;;8.85;1.20;;;9.90;99.90;;;;;;5057748;28;20413;-93
2022/12/29 10:00:12;;;;;;;4.68;0.77;;;9.90;99.90;;;;;;5072891;28;20043;-91
2022/12/29 10:02:48;;;;;;;5.78;1.25;;;10.00;99.90;;;;;;5052958;28;20036;-91
2022/12/29 10:05:20;;;;;;;8.30;1.38;;;10.00;99.90;;;;;;5037315;28;20170;-91
2022/12/29 10:08:03;;;;;;;5.80;1.15;;;10.10;99.90;;;;;;5040679;28;20029;-92
2022/12/29 10:10:40;;;;;;;9.50;1.45;;;10.10;99.90;;;;;;5031709;28;20037;-92
2022/12/29 10:13:36;;;;;;;6.28;1.42;;;10.20;99.90;;;;;;5037436;28;20040;-92
2022/12/29 10:16:30;;;;;;;4.95;0.90;;;10.30;99.90;;;;;;5037542;28;20039;-92
2022/12/29 10:19:09;;;;;;;4.22;0.73;;;10.30;99.90;;;;;;5004757;28;20051;-91
2022/12/29 10:21:37;;;;;;;7.40;1.70;;;10.30;99.90;;;;;;5057173;28;20036;-92
2022/12/29 10:24:07;;;;;;;7.47;1.35;;;10.30;99.90;;;;;;5056487;28;20393;-92
2022/12/29 10:26:44;;;;;;;5.63;1.33;;;10.30;99.90;;;;;;5055251;28;20047;-91
2022/12/29 10:29:23;;;;;;;6.85;1.05;;;10.30;99.90;;;;;;5034962;28;20063;-92
2022/12/29 10:31:56;;;;;;;5.72;1.67;;;10.30;99.90;;;;;;5050697;28;20045;-91
2022/12/29 10:34:26;;;;;;;5.15;0.95;;;10.30;99.90;;;;;;5017608;28;20406;-92
2022/12/29 10:36:58;;;;;;;4.88;1.00;;;10.30;99.90;;;;;;5043863;28;20024;-92
2022/12/29 10:39:36;;;;;;;6.50;1.33;;;10.30;99.90;;;;;;5038081;28;20076;-91
2022/12/29 10:42:21;;;;;;;6.10;1.00;;;10.30;99.90;;;;;;5052557;28;20127;-91
2022/12/29 10:44:47;;;;;;;6.38;1.30;;;10.20;99.90;;;;;;5050348;28;20028;-90
2022/12/29 10:47:19;;;;;;;9.50;1.98;;;10.10;99.90;;;;;;5071458;28;20032;-91
2022/12/29 10:49:47;;;;;;;7.35;1.23;;;10.00;99.90;;;;;;5054805;28;20459;-91
2022/12/29 10:52:16;;;;;;;4.72;1.08;;;9.90;99.90;;;;;;5055955;28;20152;-92
2022/12/29 10:54:49;;;;;;;5.95;1.23;;;9.90;99.90;;;;;;5055966;28;20046;-93
2022/12/29 10:57:20;;;;;;;8.55;1.23;;;9.90;99.90;;;;;;5056387;28;20393;-92
2022/12/29 10:59:46;;;;;;;4.70;1.02;;;9.90;99.90;;;;;;5056618;28;20047;-91
2022/12/29 11:02:11;;;;;;;5.53;1.20;;;9.90;99.90;;;;;;5055982;28;20445;-93
2022/12/29 11:05:01;;;;;;;8.35;1.70;;;9.90;99.90;;;;;;5055921;28;20036;-91
2022/12/29 11:07:28;;;;;;;9.05;1.27;;;9.80;99.90;;;;;;5056847;28;20043;-92
2022/12/29 11:09:54;;;;;;;6.55;1.33;;;9.80;99.90;;;;;;5055119;28;20044;-91
2022/12/29 11:12:22;;;;;;;3.40;1.10;;;9.70;99.90;;;;;;5056524;28;20036;-91
2022/12/29 11:15:20;;;;;;;3.65;0.85;;;9.70;99.90;;;;;;5055610;28;20036;-92
2022/12/29 11:17:50;;;;;;;2.78;0.82;;;9.70;99.90;;;;;;5055045;28;20121;-92
2022/12/29 11:20:37;;;;;;;6.68;1.58;;;9.60;99.90;;;;;;5056053;28;20047;-91
2022/12/29 11:23:20;;;;;;;5.13;1.20;;;9.60;99.90;;;;;;5055007;28;20047;-91
2022/12/29 11:25:45;;;;;;;4.50;1.02;;;9.70;99.90;;;;;;5073387;28;20636;-92
2022/12/29 11:28:16;;;;;;;7.38;1.38;;;9.70;99.90;;;;;;5055523;28;20123;-91
2022/12/29 11:30:42;;;;;;;8.02;1.38;;;9.70;99.90;;;;;;5055830;28;20039;-91
2022/12/29 11:33:09;;;;;;;7.85;1.52;;;9.60;99.90;;;;;;5054871;28;20036;-91
2022/12/29 11:35:42;;;;;;;2.88;0.90;;;9.60;99.90;;;;;;5041429;28;20040;-92
2022/12/29 11:38:31;;;;;;;8.27;1.63;;;9.60;99.90;;;;;;5035735;28;20032;-91
2022/12/29 11:40:56;;;;;;;6.32;1.30;;;9.60;99.90;;;;;;5048620;28;20037;-91
2022/12/29 11:43:37;;;;;;;5.80;1.27;;;9.60;99.90;;;;;;5056191;28;20540;-92
2022/12/29 11:46:05;;;;;;;8.50;1.92;;;9.60;99.90;;;;;;5055217;28;20043;-92
2022/12/29 11:48:40;;;;;;;3.72;1.15;;;9.60;99.90;;;;;;5054881;28;20082;-92
2022/12/29 11:51:07;;;;;;;7.90;1.45;;;9.60;99.90;;;;;;5036829;28;20673;-92
2022/12/29 11:53:51;;;;;;;8.48;1.65;;;9.60;99.90;;;;;;5052929;28;20545;-91
2022/12/29 11:56:22;;;;;;;6.40;1.02;;;9.70;99.90;;;;;;5050640;28;20039;-91
2022/12/29 11:58:50;;;;;;;7.25;1.40;;;9.70;99.90;;;;;;5035655;28;20032;-91
2022/12/29 12:01:30;;;;;;;5.32;1.63;;;9.80;99.90;;;;;;5036042;28;20094;-92
2022/12/29 12:04:03;;;;;;;6.63;1.10;;;9.80;99.90;;;;;;5038432;28;20084;-92
2022/12/29 12:06:33;;;;;;;6.78;1.23;;;9.90;99.90;;;;;;5041279;28;20478;-92
2022/12/29 12:09:10;;;;;;;6.35;1.20;;;10.00;99.90;;;;;;5039016;28;20578;-92
2022/12/29 12:11:41;;;;;;;9.23;1.67;;;10.10;99.90;;;;;;5041723;28;20058;-93
2022/12/29 12:14:35;;;;;;;12.30;1.33;;;10.10;99.90;;;;;;5039618;28;20040;-93
2022/12/29 12:17:10;;;;;;;6.35;1.67;;;10.20;99.90;;;;;;5058627;28;20040;-93
2022/12/29 12:19:56;;;;;;;8.52;1.63;;;10.30;99.90;;;;;;5059219;28;20037;-93
2022/12/29 12:22:38;;;;;;;8.60;1.73;;;10.50;99.90;;;;;;5057424;28;20085;-93
2022/12/29 12:25:36;;;;;;;11.07;1.67;;;10.80;99.90;;;;;;5059938;28;20036;-92
2022/12/29 12:28:18;;;;;;;8.48;1.77;;;10.70;99.90;;;;;;5059438;28;20040;-93
2022/12/29 12:30:48;;;;;;;20.65;2.20;;;10.60;99.90;;;;;;5051052;28;20032;-94
2022/12/29 12:33:27;;;;;;;5.40;1.10;;;10.50;99.90;;;;;;5039158;28;20044;-93
2022/12/29 12:36:14;;;;;;;10.90;1.40;;;10.40;99.90;;;;;;5044916;28;20404;-92
2022/12/29 12:39:17;;;;;;;6.35;1.38;;;10.50;99.90;;;;;;5052933;28;20040;-93
2022/12/29 12:42:14;;;;;;;7.38;1.60;;;10.60;99.90;;;;;;5039019;28;20029;-92
2022/12/29 12:44:53;;;;;;;9.35;1.88;;;10.80;99.90;;;;;;5055484;28;20036;-92
2022/12/29 12:47:38;;;;;;;10.90;1.85;;;10.80;99.90;;;;;;5068445;28;20405;-92
2022/12/29 12:50:27;;;;;;;8.02;1.60;;;10.80;99.90;;;;;;5075772;28;20036;-93
2022/12/29 12:53:03;;;;;;;5.78;1.63;;;11.00;99.90;;;;;;5044555;28;20044;-92
2022/12/29 12:55:44;;;;;;;7.38;1.67;;;11.20;99.90;;;;;;5058304;28;20041;-93
2022/12/29 12:58:25;;;;;;;10.85;1.73;;;11.20;99.90;;;;;;5038138;28;20039;-93
2022/12/29 13:00:51;;;;;;;10.20;2.03;;;11.00;99.90;;;;;;5056677;28;20044;-93
2022/12/29 13:03:48;;;;;;;10.57;2.35;;;10.80;99.90;;;;;;5037310;28;20032;-92
2022/12/29 13:06:46;;;;;;;4.47;1.35;;;10.70;99.90;;;;;;5037449;28;20047;-91
2022/12/29 13:09:44;;;;;;;7.25;1.27;;;10.50;99.90;;;;;;5051520;28;20040;-92
2022/12/29 13:12:55;;;;;;;8.35;2.10;;;10.40;99.90;;;;;;5035916;28;20410;-92
2022/12/29 13:15:36;;;;;;;8.07;1.50;;;10.30;99.90;;;;;;4972079;28;20136;-92
2022/12/29 13:18:22;;;;;;;8.43;1.92;;;10.20;99.90;;;;;;4981896;28;20506;-92
2022/12/29 13:20:56;;;;;;;8.70;2.25;;;10.20;99.90;;;;;;5035292;28;20407;-92
2022/12/29 13:23:32;;;;;;;5.47;1.48;;;10.10;99.90;;;;;;5047757;28;20068;-93
2022/12/29 13:26:36;;;;;;;8.07;1.65;;;10.10;99.90;;;;;;5058513;28;20389;-93
2022/12/29 13:29:21;;;;;;;7.38;1.73;;;10.10;99.90;;;;;;5056653;28;20105;-92
2022/12/29 13:31:47;;;;;;;8.05;1.98;;;10.40;99.90;;;;;;5057444;28;20043;-93
2022/12/29 13:34:43;;;;;;;7.45;1.60;;;10.60;99.90;;;;;;5057693;28;20089;-92
2022/12/29 13:37:15;;;;;;;6.20;1.15;;;10.80;99.90;;;;;;5056439;28;20546;-93
2022/12/29 13:39:47;;;;;;;8.50;1.77;;;10.70;99.90;;;;;;5074651;28;20137;-92
2022/12/29 13:42:13;;;;;;;8.85;1.65;;;10.70;99.90;;;;;;5057388;28;20616;-92
2022/12/29 13:44:48;;;;;;;11.77;1.90;;;10.50;99.90;;;;;;5057365;28;20054;-92